Attività con fini culturali e ricreativi - Codice Fiscale 91122750689  


METAR

LIBP 220950Z VRB03KT CAVOK 24/08 Q1021

PSG2È online il nuovo sito web targato "Pescara Spotters", con una grafica minimal ma intuitiva e semplice per i visitatori. Il tema light & blue dà un tocco di eleganza e leggerezza.

Attraverso il menù principale è possibile navigare tra le più importanti pagine per conoscere la nostrà attività, mentre con il menù "utilità" si arricchisce ancora di più il comparto funzionale.

La sezione più importante sarà la Galleria con la quale visitare e godersi le noste foto sarà una passeggiata con tags e album dedicati divisi per categoria. 

Visita la galleria fotografica

Ultimi caricamenti...


ZE707 Royal Air Force British Aerospace 146-200

 


ZE707 Royal Air Force British Aerospace 146-200

 


ZE707 Royal Air Force British Aerospace 146-200

Questo sito non utilizza cookie di profilazione. Il sito utilizza cookie tecnici, di analisi anonima di prima parte e di terze parti per servizi di social network.